Time;durP1;ratioP1;P1;durP2;ratioP2;P2;SDS_P1;SDS_P2;PMS_P1;PMS_P2;Temp;Humidity;BMP_temperature;BMP_pressure;BME280_temperature;BME280_humidity;BME280_pressure;Samples;Min_cycle;Max_cycle;Signal;HPM_P1;HPM_P2
2022/01/04 00:00:52;;;;;;;42.58;22.75;;;;;;;;;;5020705;28;20038;-82
2022/01/04 00:03:18;;;;;;;36.22;22.08;;;;;;;;;;5035466;28;20252;-82
2022/01/04 00:05:44;;;;;;;41.65;23.05;;;;;;;;;;5036087;28;20105;-83
2022/01/04 00:08:12;;;;;;;38.53;22.38;;;;;;;;;;5035791;28;20036;-83
2022/01/04 00:10:39;;;;;;;38.25;22.00;;;;;;;;;;5018533;28;20034;-82
2022/01/04 00:13:24;;;;;;;38.85;22.48;;;;;;;;;;5027192;28;20029;-82
2022/01/04 00:15:51;;;;;;;38.45;22.35;;;;;;;;;;5035863;28;20026;-82
2022/01/04 00:18:18;;;;;;;37.75;21.73;;;;;;;;;;5018357;28;20369;-82
2022/01/04 00:20:45;;;;;;;39.38;21.02;;;;;;;;;;5035625;28;20057;-82
2022/01/04 00:23:11;;;;;;;35.70;21.20;;;;;;;;;;5035237;28;20033;-83
2022/01/04 00:25:37;;;;;;;39.65;21.73;;;;;;;;;;5017501;28;20425;-82
2022/01/04 00:28:07;;;;;;;35.72;21.42;;;;;;;;;;5034691;28;20033;-83
2022/01/04 00:30:36;;;;;;;38.28;22.42;;;;;;;;;;5037129;28;20029;-82
2022/01/04 00:33:04;;;;;;;38.33;21.17;;;;;;;;;;5039480;28;20037;-81
2022/01/04 00:35:30;;;;;;;40.33;21.27;;;;;;;;;;5038491;28;20627;-84
2022/01/04 00:37:57;;;;;;;36.40;20.95;;;;;;;;;;4998405;28;20389;-83
2022/01/04 00:40:24;;;;;;;37.08;21.63;;;;;;;;;;5026178;28;20038;-81
2022/01/04 00:42:50;;;;;;;34.33;19.48;;;;;;;;;;5035374;28;20112;-83
2022/01/04 00:45:17;;;;;;;37.55;20.05;;;;;;;;;;5017673;28;20472;-82
2022/01/04 00:50:22;;;;;;;35.58;20.08;;;;;;;;;;5033756;28;20037;-81
2022/01/04 00:52:49;;;;;;;33.15;18.45;;;;;;;;;;5018536;28;20033;-82
2022/01/04 00:55:16;;;;;;;34.22;18.85;;;;;;;;;;5035015;28;20778;-82
2022/01/04 00:57:42;;;;;;;31.20;18.73;;;;;;;;;;5035273;28;20088;-82
2022/01/04 01:00:10;;;;;;;36.05;19.45;;;;;;;;;;5034877;28;20030;-83
2022/01/04 01:02:36;;;;;;;31.55;18.40;;;;;;;;;;5035072;28;20047;-83
2022/01/04 01:05:03;;;;;;;35.10;19.15;;;;;;;;;;5035303;28;20108;-82
2022/01/04 01:07:30;;;;;;;29.75;17.55;;;;;;;;;;5017450;28;20022;-82
2022/01/04 01:12:35;;;;;;;41.00;19.73;;;;;;;;;;5034600;28;20038;-82
2022/01/04 01:15:03;;;;;;;32.40;16.88;;;;;;;;;;5032943;28;20104;-82
2022/01/04 01:17:30;;;;;;;36.50;16.52;;;;;;;;;;5034819;28;20498;-81
2022/01/04 01:19:57;;;;;;;31.98;17.20;;;;;;;;;;5017228;28;20496;-82
2022/01/04 01:22:23;;;;;;;34.60;16.60;;;;;;;;;;5034030;28;20032;-82
2022/01/04 01:24:49;;;;;;;25.65;15.05;;;;;;;;;;5015604;28;20079;-83
2022/01/04 01:27:16;;;;;;;33.22;16.65;;;;;;;;;;5016525;28;20026;-82
2022/01/04 01:29:42;;;;;;;31.33;16.58;;;;;;;;;;5032248;28;21486;-82
2022/01/04 01:32:09;;;;;;;30.10;17.63;;;;;;;;;;5034703;28;20030;-82
2022/01/04 01:34:35;;;;;;;28.83;15.55;;;;;;;;;;5036090;28;20029;-82
2022/01/04 01:37:01;;;;;;;35.22;17.73;;;;;;;;;;5034196;28;20076;-82
2022/01/04 01:39:28;;;;;;;28.65;16.88;;;;;;;;;;5033888;28;20426;-82
2022/01/04 01:41:54;;;;;;;26.73;16.02;;;;;;;;;;5016051;28;20036;-81
2022/01/04 01:44:21;;;;;;;30.35;16.25;;;;;;;;;;5017022;28;20025;-82
2022/01/04 01:46:47;;;;;;;22.25;13.77;;;;;;;;;;5022829;28;20492;-82
2022/01/04 01:49:13;;;;;;;28.45;13.93;;;;;;;;;;5016479;28;20061;-84
2022/01/04 01:51:40;;;;;;;23.73;12.48;;;;;;;;;;5016392;28;20128;-83
2022/01/04 01:54:06;;;;;;;20.95;12.40;;;;;;;;;;5020826;28;20081;-83
2022/01/04 01:56:32;;;;;;;28.10;12.02;;;;;;;;;;5043192;28;20037;-83
2022/01/04 01:58:59;;;;;;;26.13;12.40;;;;;;;;;;5044908;28;20055;-82
2022/01/04 02:01:26;;;;;;;27.38;14.18;;;;;;;;;;5025466;28;20412;-82
2022/01/04 02:03:52;;;;;;;26.08;15.30;;;;;;;;;;5035949;28;20036;-81
2022/01/04 02:06:19;;;;;;;26.33;15.07;;;;;;;;;;5034769;28;20148;-83
2022/01/04 02:08:45;;;;;;;26.73;15.70;;;;;;;;;;5034747;28;20496;-83
2022/01/04 02:11:12;;;;;;;23.60;14.23;;;;;;;;;;5034131;28;20041;-82
2022/01/04 02:13:39;;;;;;;27.98;15.52;;;;;;;;;;5034466;28;20188;-84
2022/01/04 02:16:08;;;;;;;22.75;15.50;;;;;;;;;;5031646;28;20034;-84
2022/01/04 02:18:34;;;;;;;25.65;16.27;;;;;;;;;;5031395;28;20040;-83
2022/01/04 02:21:00;;;;;;;25.40;17.95;;;;;;;;;;5033293;28;20033;-83
2022/01/04 02:23:26;;;;;;;27.90;18.30;;;;;;;;;;5033716;28;20056;-83
2022/01/04 02:25:53;;;;;;;26.90;17.48;;;;;;;;;;5033359;28;20036;-83
2022/01/04 02:28:20;;;;;;;24.77;17.77;;;;;;;;;;5033496;28;20405;-84
2022/01/04 02:30:48;;;;;;;27.23;19.00;;;;;;;;;;5033599;28;20087;-82
2022/01/04 02:33:15;;;;;;;32.95;20.95;;;;;;;;;;5031712;28;20056;-82
2022/01/04 02:35:41;;;;;;;33.60;20.95;;;;;;;;;;5014380;28;20060;-83
2022/01/04 02:38:10;;;;;;;30.88;20.75;;;;;;;;;;5030902;28;20037;-82
2022/01/04 02:40:36;;;;;;;29.85;20.50;;;;;;;;;;5027193;28;20029;-83
2022/01/04 02:43:02;;;;;;;32.40;21.20;;;;;;;;;;5014402;28;20171;-82
2022/01/04 02:45:29;;;;;;;30.35;20.50;;;;;;;;;;5027232;28;20499;-82
2022/01/04 02:47:55;;;;;;;30.88;20.42;;;;;;;;;;5034196;28;20078;-82
2022/01/04 02:50:21;;;;;;;30.63;19.20;;;;;;;;;;5033730;28;20104;-82
2022/01/04 02:52:48;;;;;;;30.95;19.50;;;;;;;;;;5015349;28;20041;-82
2022/01/04 02:55:16;;;;;;;28.23;18.92;;;;;;;;;;5033328;28;20049;-82
2022/01/04 02:57:42;;;;;;;27.25;17.17;;;;;;;;;;5014749;28;20033;-83
2022/01/04 03:00:10;;;;;;;26.17;17.20;;;;;;;;;;5032952;28;20029;-83
2022/01/04 03:02:37;;;;;;;27.13;18.00;;;;;;;;;;5033092;28;20022;-83
2022/01/04 03:05:03;;;;;;;23.45;16.77;;;;;;;;;;5032920;28;20489;-82
2022/01/04 03:07:30;;;;;;;21.27;14.88;;;;;;;;;;5029890;28;20353;-83
2022/01/04 03:09:56;;;;;;;26.77;16.92;;;;;;;;;;5030354;28;20029;-81
2022/01/04 03:12:23;;;;;;;23.98;15.57;;;;;;;;;;5054430;28;20040;-80
2022/01/04 03:14:50;;;;;;;25.00;16.58;;;;;;;;;;5037781;28;20054;-81
2022/01/04 03:17:16;;;;;;;26.13;17.35;;;;;;;;;;5027933;28;20148;-81
2022/01/04 03:19:42;;;;;;;25.83;16.77;;;;;;;;;;5044709;28;20045;-81
2022/01/04 03:22:09;;;;;;;24.27;17.23;;;;;;;;;;5050605;28;20028;-82
2022/01/04 03:24:35;;;;;;;26.85;16.77;;;;;;;;;;5020974;28;20108;-82
2022/01/04 03:27:01;;;;;;;25.65;17.38;;;;;;;;;;5010307;28;20026;-82
2022/01/04 03:29:28;;;;;;;22.73;15.88;;;;;;;;;;5023550;28;20033;-82
2022/01/04 03:31:57;;;;;;;24.88;16.92;;;;;;;;;;5015008;28;20033;-82
2022/01/04 03:34:23;;;;;;;26.70;17.75;;;;;;;;;;5013972;28;20169;-82
2022/01/04 03:36:50;;;;;;;28.42;19.30;;;;;;;;;;5031144;28;20511;-83
2022/01/04 03:39:16;;;;;;;30.52;19.83;;;;;;;;;;5020133;28;20045;-83
2022/01/04 03:41:44;;;;;;;27.83;19.05;;;;;;;;;;5029451;28;20033;-82
2022/01/04 03:44:11;;;;;;;28.25;18.98;;;;;;;;;;5013494;28;20164;-82
2022/01/04 03:46:37;;;;;;;31.23;21.23;;;;;;;;;;5029214;28;20481;-81
2022/01/04 03:49:04;;;;;;;30.70;20.42;;;;;;;;;;5026889;28;20028;-81
2022/01/04 03:51:31;;;;;;;28.40;19.65;;;;;;;;;;5029554;28;20063;-83
2022/01/04 03:53:57;;;;;;;32.67;20.50;;;;;;;;;;5031920;28;20022;-82
2022/01/04 03:56:24;;;;;;;32.95;21.25;;;;;;;;;;5030749;28;20025;-82
2022/01/04 03:58:50;;;;;;;29.75;20.38;;;;;;;;;;5011559;28;20026;-85
2022/01/04 04:01:16;;;;;;;28.05;20.20;;;;;;;;;;5028404;28;20026;-83
2022/01/04 04:03:43;;;;;;;31.85;20.67;;;;;;;;;;5035029;28;20116;-84
2022/01/04 04:06:09;;;;;;;31.35;21.30;;;;;;;;;;5035684;28;20036;-83
2022/01/04 04:08:35;;;;;;;33.95;22.45;;;;;;;;;;5030905;28;20022;-84
2022/01/04 04:11:01;;;;;;;35.30;23.25;;;;;;;;;;5032016;28;20034;-82
2022/01/04 04:13:28;;;;;;;38.55;25.70;;;;;;;;;;5034394;28;20037;-81
2022/01/04 04:15:57;;;;;;;35.30;25.10;;;;;;;;;;5036489;28;20037;-83
2022/01/04 04:18:23;;;;;;;42.17;25.80;;;;;;;;;;5010799;28;20095;-84
2022/01/04 04:20:49;;;;;;;36.17;24.40;;;;;;;;;;5029446;28;20050;-83
2022/01/04 04:23:16;;;;;;;39.63;25.80;;;;;;;;;;5032559;28;20429;-82
2022/01/04 04:25:42;;;;;;;43.08;27.67;;;;;;;;;;5030592;28;20052;-82
2022/01/04 04:28:09;;;;;;;38.08;26.60;;;;;;;;;;5029085;28;20021;-82
2022/01/04 04:30:35;;;;;;;42.22;27.73;;;;;;;;;;5034176;28;20041;-81
2022/01/04 04:33:01;;;;;;;42.20;28.63;;;;;;;;;;5032319;28;20059;-82
2022/01/04 04:35:29;;;;;;;38.88;28.08;;;;;;;;;;5030214;28;20034;-83
2022/01/04 04:37:56;;;;;;;44.40;29.08;;;;;;;;;;5006608;28;20072;-82
2022/01/04 04:40:22;;;;;;;43.20;30.13;;;;;;;;;;5013148;28;20043;-82
2022/01/04 04:42:49;;;;;;;41.08;29.00;;;;;;;;;;5031114;28;20033;-83
2022/01/04 04:45:15;;;;;;;41.40;27.25;;;;;;;;;;5027944;28;20029;-83
2022/01/04 04:47:41;;;;;;;34.17;25.20;;;;;;;;;;5031089;28;20346;-82
2022/01/04 04:50:08;;;;;;;42.00;26.90;;;;;;;;;;5034479;28;20040;-84
2022/01/04 04:52:34;;;;;;;42.85;28.10;;;;;;;;;;5038866;28;20064;-82
2022/01/04 04:55:00;;;;;;;41.35;27.88;;;;;;;;;;5016155;28;20128;-81
2022/01/04 04:57:27;;;;;;;38.33;25.30;;;;;;;;;;5033259;28;20041;-81
2022/01/04 04:59:53;;;;;;;32.40;21.27;;;;;;;;;;5032304;28;20502;-82
2022/01/04 05:02:20;;;;;;;33.85;21.60;;;;;;;;;;5032519;28;20025;-86
2022/01/04 05:04:46;;;;;;;32.08;21.95;;;;;;;;;;5034226;28;20022;-82
2022/01/04 05:07:13;;;;;;;29.48;19.65;;;;;;;;;;5031521;28;20362;-82
2022/01/04 05:09:39;;;;;;;32.17;22.30;;;;;;;;;;5030840;28;20461;-82
2022/01/04 05:12:06;;;;;;;35.78;23.17;;;;;;;;;;5022805;28;20040;-83
2022/01/04 05:14:33;;;;;;;32.45;21.33;;;;;;;;;;5015190;28;20396;-82
2022/01/04 05:16:59;;;;;;;31.73;21.15;;;;;;;;;;5029142;28;20025;-82
2022/01/04 05:19:25;;;;;;;31.98;21.92;;;;;;;;;;5030447;28;20129;-81
2022/01/04 05:21:51;;;;;;;31.63;21.90;;;;;;;;;;5031537;28;20045;-82
2022/01/04 05:24:18;;;;;;;37.17;22.33;;;;;;;;;;5028892;28;20053;-83
2022/01/04 05:26:44;;;;;;;31.70;21.48;;;;;;;;;;5031558;28;20064;-82
2022/01/04 05:29:10;;;;;;;29.50;19.92;;;;;;;;;;5031355;28;20101;-82
2022/01/04 05:31:37;;;;;;;26.55;18.95;;;;;;;;;;5016547;28;20184;-82
2022/01/04 05:34:03;;;;;;;30.55;20.48;;;;;;;;;;5034775;28;20025;-81
2022/01/04 05:36:29;;;;;;;37.00;24.73;;;;;;;;;;4996126;28;20033;-82
2022/01/04 05:38:56;;;;;;;39.15;28.50;;;;;;;;;;5034347;28;20036;-82
2022/01/04 05:41:22;;;;;;;41.13;30.02;;;;;;;;;;5035169;28;20436;-84
2022/01/04 05:43:48;;;;;;;38.67;29.33;;;;;;;;;;5015675;28;20106;-82
2022/01/04 05:46:16;;;;;;;39.42;28.55;;;;;;;;;;5025842;28;20029;-83
2022/01/04 05:48:42;;;;;;;40.38;28.85;;;;;;;;;;5011032;28;20084;-83
2022/01/04 05:51:09;;;;;;;40.03;27.25;;;;;;;;;;5016581;28;20349;-83
2022/01/04 05:53:35;;;;;;;29.17;23.23;;;;;;;;;;5034113;28;20036;-81
2022/01/04 05:56:02;;;;;;;37.63;25.20;;;;;;;;;;5016553;28;20464;-85
2022/01/04 05:58:28;;;;;;;36.65;25.63;;;;;;;;;;5019386;28;20519;-82
2022/01/04 06:00:54;;;;;;;37.47;24.92;;;;;;;;;;5032003;28;20029;-83
2022/01/04 06:03:20;;;;;;;24.60;19.27;;;;;;;;;;5010804;28;20397;-83
2022/01/04 06:05:47;;;;;;;27.13;18.00;;;;;;;;;;5032448;28;20060;-82
2022/01/04 06:08:14;;;;;;;24.23;17.02;;;;;;;;;;5031936;28;20056;-84
2022/01/04 06:10:43;;;;;;;23.35;16.92;;;;;;;;;;5017907;28;20384;-84
2022/01/04 06:15:38;;;;;;;20.83;14.35;;;;;;;;;;5026466;28;20033;-83
2022/01/04 06:18:05;;;;;;;16.20;12.30;;;;;;;;;;5023769;28;20371;-84
2022/01/04 06:20:31;;;;;;;18.02;12.88;;;;;;;;;;5013496;28;20050;-83
2022/01/04 06:22:58;;;;;;;17.17;11.90;;;;;;;;;;5033490;28;20036;-85
2022/01/04 06:25:25;;;;;;;17.67;12.32;;;;;;;;;;5041309;28;20440;-82
2022/01/04 06:27:56;;;;;;;17.48;12.18;;;;;;;;;;5037972;28;20018;-83
2022/01/04 06:30:23;;;;;;;19.20;14.63;;;;;;;;;;5035748;28;20393;-81
2022/01/04 06:32:49;;;;;;;22.90;15.80;;;;;;;;;;5015266;28;20069;-82
2022/01/04 06:35:18;;;;;;;24.65;17.02;;;;;;;;;;5029779;28;20041;-83
2022/01/04 06:37:47;;;;;;;31.52;22.42;;;;;;;;;;5026870;28;20076;-81
2022/01/04 06:40:14;;;;;;;38.80;24.80;;;;;;;;;;5030659;28;20037;-84
2022/01/04 06:42:40;;;;;;;38.67;27.45;;;;;;;;;;5032733;28;20034;-84
2022/01/04 06:45:06;;;;;;;35.63;26.52;;;;;;;;;;5025469;28;20026;-85
2022/01/04 06:47:33;;;;;;;34.97;27.02;;;;;;;;;;5009166;28;20530;-84
2022/01/04 06:49:59;;;;;;;47.78;33.03;;;;;;;;;;5033695;28;20025;-83
2022/01/04 06:52:25;;;;;;;49.47;36.15;;;;;;;;;;5031759;28;20029;-83
2022/01/04 06:54:52;;;;;;;68.70;47.88;;;;;;;;;;5029766;28;20040;-85
2022/01/04 06:57:18;;;;;;;70.32;50.45;;;;;;;;;;5015008;28;20037;-84
2022/01/04 06:59:44;;;;;;;85.07;58.00;;;;;;;;;;5012227;28;20116;-84
2022/01/04 07:02:11;;;;;;;95.05;64.63;;;;;;;;;;5032615;28;20036;-82
2022/01/04 07:04:37;;;;;;;95.07;62.60;;;;;;;;;;5030670;28;20546;-83
2022/01/04 07:07:03;;;;;;;84.63;58.58;;;;;;;;;;5023370;28;20068;-84
2022/01/04 07:09:30;;;;;;;89.95;60.15;;;;;;;;;;5026966;28;20445;-87
2022/01/04 07:11:57;;;;;;;87.30;60.15;;;;;;;;;;5020854;28;20041;-83
2022/01/04 07:14:24;;;;;;;92.68;62.35;;;;;;;;;;5008735;28;20124;-81
2022/01/04 07:16:50;;;;;;;89.07;60.55;;;;;;;;;;5027753;28;20084;-84
2022/01/04 07:19:16;;;;;;;91.88;62.55;;;;;;;;;;5026681;28;20112;-84
2022/01/04 07:21:43;;;;;;;84.90;58.08;;;;;;;;;;5029286;28;20057;-82
2022/01/04 07:24:09;;;;;;;92.75;62.45;;;;;;;;;;5002261;28;20030;-82
2022/01/04 07:26:35;;;;;;;68.95;48.38;;;;;;;;;;5031113;28;20035;-81
2022/01/04 07:29:02;;;;;;;54.88;39.15;;;;;;;;;;5010529;28;20500;-82
2022/01/04 07:31:28;;;;;;;46.88;34.13;;;;;;;;;;5018124;28;20072;-83
2022/01/04 07:33:54;;;;;;;45.50;32.67;;;;;;;;;;5030073;28;20366;-82
2022/01/04 07:36:21;;;;;;;44.63;33.08;;;;;;;;;;5033121;28;20439;-84
2022/01/04 07:38:48;;;;;;;48.42;33.80;;;;;;;;;;5016566;28;20036;-82
2022/01/04 07:41:14;;;;;;;47.55;35.75;;;;;;;;;;5013148;28;20504;-83
2022/01/04 07:43:40;;;;;;;50.10;35.85;;;;;;;;;;5028381;28;20030;-83
2022/01/04 07:46:07;;;;;;;53.38;40.47;;;;;;;;;;5029316;28;20053;-84
2022/01/04 07:48:33;;;;;;;57.03;40.83;;;;;;;;;;5030132;28;20104;-84
2022/01/04 07:50:59;;;;;;;65.60;47.70;;;;;;;;;;5033620;28;20387;-83
2022/01/04 07:53:26;;;;;;;67.47;48.90;;;;;;;;;;5034345;28;20041;-83
2022/01/04 07:55:53;;;;;;;66.70;49.15;;;;;;;;;;5035603;28;20030;-82
2022/01/04 07:58:19;;;;;;;67.35;47.20;;;;;;;;;;5036987;28;20060;-84
2022/01/04 08:00:45;;;;;;;72.30;45.72;;;;;;;;;;5033855;28;20033;-82
2022/01/04 08:03:12;;;;;;;69.50;43.75;;;;;;;;;;5015203;28;20501;-82
2022/01/04 08:05:38;;;;;;;66.40;45.40;;;;;;;;;;5041540;28;20033;-84
2022/01/04 08:08:06;;;;;;;66.45;44.85;;;;;;;;;;5020808;28;20072;-82
2022/01/04 08:10:32;;;;;;;62.40;44.78;;;;;;;;;;5035863;28;20064;-83
2022/01/04 08:12:58;;;;;;;64.93;42.53;;;;;;;;;;5034926;28;20452;-83
2022/01/04 08:15:26;;;;;;;59.35;41.53;;;;;;;;;;5030836;28;20497;-82
2022/01/04 08:17:52;;;;;;;61.65;43.38;;;;;;;;;;5032299;28;20033;-83
2022/01/04 08:20:18;;;;;;;59.13;42.35;;;;;;;;;;5028085;28;20051;-84
2022/01/04 08:22:45;;;;;;;52.50;38.30;;;;;;;;;;5029900;28;20029;-84
2022/01/04 08:25:11;;;;;;;59.25;42.30;;;;;;;;;;5011816;28;20128;-83
2022/01/04 08:27:39;;;;;;;46.97;35.47;;;;;;;;;;5034434;28;20496;-83
2022/01/04 08:30:06;;;;;;;45.42;32.55;;;;;;;;;;5017306;28;20091;-84
2022/01/04 08:32:33;;;;;;;38.83;28.90;;;;;;;;;;5033606;28;20053;-84
2022/01/04 08:34:59;;;;;;;33.28;25.50;;;;;;;;;;5028813;28;20036;-83
2022/01/04 08:37:26;;;;;;;37.33;26.55;;;;;;;;;;5035452;28;20083;-82
2022/01/04 08:39:53;;;;;;;35.97;24.38;;;;;;;;;;5021191;28;20083;-82
2022/01/04 08:42:22;;;;;;;31.35;24.00;;;;;;;;;;5038168;28;20125;-84
2022/01/04 08:44:49;;;;;;;36.03;27.10;;;;;;;;;;5034790;28;20017;-82
2022/01/04 08:47:15;;;;;;;36.80;27.17;;;;;;;;;;5034306;28;20048;-82
2022/01/04 08:49:42;;;;;;;30.70;23.73;;;;;;;;;;5026470;28;20153;-84
2022/01/04 08:52:08;;;;;;;28.55;22.27;;;;;;;;;;5032355;28;20037;-84
2022/01/04 08:54:35;;;;;;;29.83;21.38;;;;;;;;;;5030934;28;20029;-85
2022/01/04 08:57:02;;;;;;;24.70;19.48;;;;;;;;;;5027720;28;20036;-83
2022/01/04 08:59:29;;;;;;;24.98;18.70;;;;;;;;;;5030929;28;20029;-81
2022/01/04 09:01:56;;;;;;;25.08;17.23;;;;;;;;;;5018315;28;20037;-85
2022/01/04 09:04:22;;;;;;;22.63;16.30;;;;;;;;;;5029385;28;20088;-82
2022/01/04 09:06:49;;;;;;;23.15;16.80;;;;;;;;;;5015188;28;20068;-82
2022/01/04 09:09:16;;;;;;;20.63;15.85;;;;;;;;;;5037023;28;20025;-83
2022/01/04 09:11:42;;;;;;;24.90;17.45;;;;;;;;;;5029046;28;20033;-82
2022/01/04 09:19:20;;;;;;;31.48;21.27;;;;;;;;;;5042278;28;20097;-82
2022/01/04 09:21:46;;;;;;;29.85;20.15;;;;;;;;;;5040328;28;20476;-83
2022/01/04 09:24:13;;;;;;;38.60;26.13;;;;;;;;;;5033741;28;20461;-83
2022/01/04 09:26:39;;;;;;;37.72;24.77;;;;;;;;;;5030105;28;20497;-82
2022/01/04 09:29:05;;;;;;;38.10;26.65;;;;;;;;;;5012788;28;20384;-85
2022/01/04 09:31:32;;;;;;;34.70;23.08;;;;;;;;;;5030366;28;20022;-85
2022/01/04 09:33:59;;;;;;;35.67;23.00;;;;;;;;;;5029912;28;20033;-82
2022/01/04 09:36:27;;;;;;;36.08;24.25;;;;;;;;;;5015466;28;20067;-84
2022/01/04 09:38:53;;;;;;;37.58;24.38;;;;;;;;;;5030271;28;20025;-83
2022/01/04 09:41:20;;;;;;;28.80;22.55;;;;;;;;;;5028200;28;20116;-82
2022/01/04 09:43:48;;;;;;;30.83;22.88;;;;;;;;;;5034710;28;20029;-82
2022/01/04 09:46:14;;;;;;;27.95;21.80;;;;;;;;;;5018878;28;20084;-86
2022/01/04 09:48:41;;;;;;;30.20;22.55;;;;;;;;;;5029614;28;20545;-84
2022/01/04 09:51:10;;;;;;;29.63;21.95;;;;;;;;;;5015674;28;20627;-81
2022/01/04 09:53:37;;;;;;;30.30;21.55;;;;;;;;;;5013939;28;20045;-84
2022/01/04 09:56:03;;;;;;;27.13;19.95;;;;;;;;;;5023821;28;20046;-83
2022/01/04 09:58:30;;;;;;;25.67;20.05;;;;;;;;;;5003947;28;20025;-81
2022/01/04 10:00:56;;;;;;;24.45;19.20;;;;;;;;;;5012302;28;20037;-84
2022/01/04 10:03:29;;;;;;;32.10;22.80;;;;;;;;;;5027914;28;20033;-86
2022/01/04 10:06:02;;;;;;;43.97;28.48;;;;;;;;;;5032537;28;20461;-84
2022/01/04 10:08:28;;;;;;;37.35;26.42;;;;;;;;;;5010597;28;20072;-83
2022/01/04 10:11:08;;;;;;;24.38;19.52;;;;;;;;;;5031315;28;20057;-83
2022/01/04 10:13:34;;;;;;;22.52;17.38;;;;;;;;;;4996378;28;20056;-84
2022/01/04 10:16:01;;;;;;;25.60;16.80;;;;;;;;;;5023618;28;20033;-87
2022/01/04 10:18:28;;;;;;;22.60;17.70;;;;;;;;;;5007647;28;20042;-82
2022/01/04 10:21:04;;;;;;;23.48;17.73;;;;;;;;;;5007612;28;20127;-83
2022/01/04 10:23:30;;;;;;;24.63;17.35;;;;;;;;;;5024560;28;20067;-84
2022/01/04 10:26:06;;;;;;;22.38;16.48;;;;;;;;;;5025033;28;20033;-84
2022/01/04 10:28:36;;;;;;;21.85;16.15;;;;;;;;;;5024891;28;20044;-83
2022/01/04 10:31:06;;;;;;;24.35;16.27;;;;;;;;;;5028404;28;20033;-84
2022/01/04 10:33:34;;;;;;;21.42;17.85;;;;;;;;;;5022872;28;20354;-83
2022/01/04 10:36:02;;;;;;;21.02;17.52;;;;;;;;;;5026285;28;20028;-84
2022/01/04 10:38:31;;;;;;;21.45;16.80;;;;;;;;;;5028347;28;20041;-82
2022/01/04 10:41:00;;;;;;;21.38;16.45;;;;;;;;;;5016450;28;20029;-84
2022/01/04 10:43:43;;;;;;;21.67;16.10;;;;;;;;;;5026515;28;20401;-85
2022/01/04 10:46:09;;;;;;;20.70;15.95;;;;;;;;;;5011133;28;20116;-81
2022/01/04 10:48:41;;;;;;;20.30;15.80;;;;;;;;;;5028033;28;20197;-83
2022/01/04 10:51:09;;;;;;;27.17;17.98;;;;;;;;;;5036775;28;20025;-82
2022/01/04 10:53:56;;;;;;;22.73;16.70;;;;;;;;;;5019597;28;20124;-81
2022/01/04 10:56:25;;;;;;;23.02;17.77;;;;;;;;;;5011432;28;20497;-85
2022/01/04 10:58:52;;;;;;;24.23;18.20;;;;;;;;;;5026627;28;20075;-81
2022/01/04 11:01:23;;;;;;;25.52;16.92;;;;;;;;;;5027140;28;20025;-83
2022/01/04 11:03:52;;;;;;;20.88;15.82;;;;;;;;;;4997209;28;20041;-83
2022/01/04 11:06:27;;;;;;;24.95;16.13;;;;;;;;;;5043450;28;20492;-83
2022/01/04 11:08:53;;;;;;;22.98;16.48;;;;;;;;;;5022843;28;20026;-83
2022/01/04 11:11:20;;;;;;;23.98;16.65;;;;;;;;;;5007455;28;20034;-83
2022/01/04 11:13:48;;;;;;;30.13;19.65;;;;;;;;;;5007075;28;20033;-85
2022/01/04 11:16:18;;;;;;;28.92;19.63;;;;;;;;;;5027107;28;20057;-83
2022/01/04 11:18:47;;;;;;;34.22;23.02;;;;;;;;;;5011275;28;20029;-83
2022/01/04 11:21:14;;;;;;;33.60;23.58;;;;;;;;;;5021832;28;20025;-83
2022/01/04 11:23:41;;;;;;;33.75;22.65;;;;;;;;;;5029817;28;20032;-84
2022/01/04 11:26:09;;;;;;;37.78;24.75;;;;;;;;;;5027363;28;20029;-82
2022/01/04 11:28:35;;;;;;;40.00;25.90;;;;;;;;;;5029529;28;20036;-84
2022/01/04 11:31:02;;;;;;;45.25;28.67;;;;;;;;;;5027640;28;20060;-85
2022/01/04 11:33:31;;;;;;;40.53;26.90;;;;;;;;;;5008900;28;20034;-81
2022/01/04 11:35:58;;;;;;;38.53;26.40;;;;;;;;;;5029004;28;20469;-83
2022/01/04 11:38:31;;;;;;;41.42;26.02;;;;;;;;;;5024128;28;20181;-85
2022/01/04 11:40:58;;;;;;;43.40;30.08;;;;;;;;;;5021610;28;20418;-83
2022/01/04 11:43:38;;;;;;;57.00;39.17;;;;;;;;;;5026816;28;20034;-83
2022/01/04 11:46:06;;;;;;;77.82;49.83;;;;;;;;;;5014168;28;20539;-82
2022/01/04 11:48:37;;;;;;;73.20;49.13;;;;;;;;;;5023587;28;20030;-82
2022/01/04 11:51:05;;;;;;;83.18;55.97;;;;;;;;;;5032683;28;20044;-85
2022/01/04 11:53:32;;;;;;;102.05;67.20;;;;;;;;;;5032000;28;20544;-82
2022/01/04 11:56:01;;;;;;;108.13;68.50;;;;;;;;;;5002877;28;20030;-84
2022/01/04 11:58:43;;;;;;;120.72;76.55;;;;;;;;;;5034855;28;20026;-85
2022/01/04 12:01:11;;;;;;;118.53;75.63;;;;;;;;;;5030375;28;20415;-85
2022/01/04 12:03:40;;;;;;;120.32;76.50;;;;;;;;;;5013058;28;20029;-83
2022/01/04 12:06:08;;;;;;;115.28;79.18;;;;;;;;;;5031148;28;20044;-83
2022/01/04 12:08:37;;;;;;;124.45;81.70;;;;;;;;;;5011831;28;20030;-82
2022/01/04 12:11:04;;;;;;;127.45;82.78;;;;;;;;;;5008057;28;20076;-84
2022/01/04 12:13:47;;;;;;;136.60;89.13;;;;;;;;;;5012928;28;20041;-85
2022/01/04 12:16:14;;;;;;;155.88;103.15;;;;;;;;;;5022360;28;20037;-83
2022/01/04 12:18:40;;;;;;;145.50;92.18;;;;;;;;;;5014142;28;20469;-83
2022/01/04 12:21:13;;;;;;;117.60;74.68;;;;;;;;;;5024770;28;20124;-84
2022/01/04 12:23:39;;;;;;;109.80;72.57;;;;;;;;;;5029239;28;20079;-84
2022/01/04 12:26:05;;;;;;;84.43;57.10;;;;;;;;;;5036040;28;20159;-83
2022/01/04 12:28:36;;;;;;;81.30;56.20;;;;;;;;;;5031655;28;20108;-83
2022/01/04 12:31:20;;;;;;;85.00;57.15;;;;;;;;;;5014297;28;20048;-82
2022/01/04 12:34:04;;;;;;;82.15;54.15;;;;;;;;;;5017773;28;20033;-84
2022/01/04 12:36:33;;;;;;;82.80;53.92;;;;;;;;;;5025413;28;20413;-82
2022/01/04 12:39:07;;;;;;;78.13;52.92;;;;;;;;;;5035105;28;20087;-83
2022/01/04 12:41:35;;;;;;;78.13;51.65;;;;;;;;;;5032661;28;20037;-84
2022/01/04 12:44:02;;;;;;;71.50;50.72;;;;;;;;;;5035413;28;20037;-84
2022/01/04 12:46:32;;;;;;;80.32;51.65;;;;;;;;;;5035317;28;20062;-84
2022/01/04 12:49:01;;;;;;;72.10;48.47;;;;;;;;;;5017924;28;20505;-84
2022/01/04 12:51:32;;;;;;;80.97;50.58;;;;;;;;;;5035507;28;20448;-82
2022/01/04 12:54:08;;;;;;;68.28;45.13;;;;;;;;;;5035323;28;20064;-81
2022/01/04 12:56:44;;;;;;;73.22;48.13;;;;;;;;;;5016183;28;20044;-84
2022/01/04 12:59:18;;;;;;;73.68;45.83;;;;;;;;;;5045634;28;20037;-82
2022/01/04 13:01:48;;;;;;;64.90;41.20;;;;;;;;;;5036886;28;20025;-84
2022/01/04 13:04:21;;;;;;;57.15;38.08;;;;;;;;;;5022246;28;20057;-85
2022/01/04 13:06:48;;;;;;;54.35;38.38;;;;;;;;;;5042007;28;20048;-84
2022/01/04 13:09:18;;;;;;;59.63;38.60;;;;;;;;;;5024936;28;20017;-84
2022/01/04 13:11:48;;;;;;;52.75;36.85;;;;;;;;;;5016838;28;20087;-85
2022/01/04 13:14:19;;;;;;;52.83;35.05;;;;;;;;;;5019658;28;20032;-84
2022/01/04 13:16:46;;;;;;;54.70;35.20;;;;;;;;;;5034949;28;20036;-82
2022/01/04 13:19:13;;;;;;;57.45;37.35;;;;;;;;;;5032662;28;20384;-83
2022/01/04 13:21:40;;;;;;;50.25;33.80;;;;;;;;;;5026179;28;20088;-84
2022/01/04 13:24:06;;;;;;;56.85;34.97;;;;;;;;;;5033786;28;20056;-83
2022/01/04 13:26:32;;;;;;;56.47;34.28;;;;;;;;;;5015723;28;20030;-82
2022/01/04 13:28:59;;;;;;;57.30;36.03;;;;;;;;;;5034381;28;20021;-82
2022/01/04 13:31:26;;;;;;;58.60;38.08;;;;;;;;;;5034453;28;20083;-83
2022/01/04 13:33:53;;;;;;;61.00;38.13;;;;;;;;;;5033069;28;20036;-83
2022/01/04 13:36:26;;;;;;;62.28;39.53;;;;;;;;;;5033755;28;20037;-84
2022/01/04 13:38:57;;;;;;;58.53;38.45;;;;;;;;;;5016188;28;20115;-82
2022/01/04 13:41:34;;;;;;;66.53;40.70;;;;;;;;;;5016017;28;20076;-85
2022/01/04 13:44:04;;;;;;;64.28;38.75;;;;;;;;;;5021447;28;20030;-83
2022/01/04 13:46:33;;;;;;;62.85;38.30;;;;;;;;;;5019645;28;20033;-84
2022/01/04 13:48:59;;;;;;;58.05;36.70;;;;;;;;;;5023600;28;20021;-83
2022/01/04 13:51:27;;;;;;;60.28;37.45;;;;;;;;;;5033608;28;20061;-83
2022/01/04 13:53:55;;;;;;;62.72;38.95;;;;;;;;;;5034323;28;20029;-81
2022/01/04 13:56:23;;;;;;;58.25;38.15;;;;;;;;;;5032167;28;20025;-82
2022/01/04 13:58:54;;;;;;;65.18;38.72;;;;;;;;;;5022463;28;20017;-82
2022/01/04 14:01:27;;;;;;;63.38;39.17;;;;;;;;;;5031799;28;20034;-84
2022/01/04 14:03:56;;;;;;;62.75;40.28;;;;;;;;;;5033214;28;20034;-83
2022/01/04 14:06:43;;;;;;;70.20;44.20;;;;;;;;;;5017034;28;20025;-83
2022/01/04 14:09:30;;;;;;;95.90;57.92;;;;;;;;;;4999582;28;20135;-84
2022/01/04 14:12:04;;;;;;;96.47;61.72;;;;;;;;;;5014021;28;20026;-82
2022/01/04 14:14:32;;;;;;;98.32;62.50;;;;;;;;;;5021883;28;20030;-84
2022/01/04 14:17:05;;;;;;;97.13;62.33;;;;;;;;;;5015394;28;20029;-83
2022/01/04 14:19:46;;;;;;;100.47;64.43;;;;;;;;;;5033713;28;20409;-83
2022/01/04 14:22:17;;;;;;;94.32;60.85;;;;;;;;;;5033604;28;20029;-84
2022/01/04 14:24:46;;;;;;;109.22;69.93;;;;;;;;;;5033451;28;20030;-82
2022/01/04 14:27:21;;;;;;;121.35;75.50;;;;;;;;;;5015652;28;20108;-82
2022/01/04 14:29:48;;;;;;;168.10;107.55;;;;;;;;;;5033602;28;20059;-83
2022/01/04 14:32:14;;;;;;;169.43;107.72;;;;;;;;;;5033833;28;20029;-82